Time;durP1;ratioP1;P1;durP2;ratioP2;P2;SDS_P1;SDS_P2;PMS_P1;PMS_P2;Temp;Humidity;BMP_temperature;BMP_pressure;BME280_temperature;BME280_humidity;BME280_pressure;Samples;Min_cycle;Max_cycle;Signal;HPM_P1;HPM_P2
2022/05/20 00:01:37;;;;;;;10.93;6.82;;;16.90;99.90;;;;;;5026482;28;20496;-71
2022/05/20 00:04:03;;;;;;;15.02;7.30;;;16.90;99.90;;;;;;5027590;28;20037;-73
2022/05/20 00:06:28;;;;;;;11.65;6.97;;;16.90;99.90;;;;;;5019540;28;20034;-73
2022/05/20 00:08:54;;;;;;;12.27;6.40;;;16.80;99.90;;;;;;5025483;28;20519;-72
2022/05/20 00:11:20;;;;;;;16.63;7.70;;;16.80;99.90;;;;;;5028415;28;20686;-71
2022/05/20 00:13:47;;;;;;;11.18;7.20;;;16.80;99.90;;;;;;5027081;28;20537;-73
2022/05/20 00:16:13;;;;;;;14.20;6.82;;;16.70;99.90;;;;;;5027287;28;20061;-71
2022/05/20 00:18:39;;;;;;;11.65;7.28;;;16.70;99.90;;;;;;5025851;28;20118;-70
2022/05/20 00:21:05;;;;;;;15.40;7.07;;;16.70;99.90;;;;;;5028560;28;20146;-73
2022/05/20 00:23:31;;;;;;;12.77;7.18;;;16.70;99.90;;;;;;5027661;28;20057;-73
2022/05/20 00:25:57;;;;;;;13.13;7.10;;;16.70;99.90;;;;;;5024655;28;20742;-73
2022/05/20 00:28:25;;;;;;;16.48;6.90;;;16.70;99.90;;;;;;5026530;28;20037;-74
2022/05/20 00:30:55;;;;;;;19.25;7.47;;;16.70;99.90;;;;;;5027239;28;20398;-74
2022/05/20 00:33:22;;;;;;;14.82;6.63;;;16.60;99.90;;;;;;5027539;28;20088;-71
2022/05/20 00:35:48;;;;;;;13.95;6.88;;;16.60;99.90;;;;;;5027418;28;20034;-72
2022/05/20 00:38:15;;;;;;;14.18;7.35;;;16.60;99.90;;;;;;5008828;28;20144;-73
2022/05/20 00:40:42;;;;;;;14.13;7.22;;;16.50;99.90;;;;;;5026051;28;20085;-68
2022/05/20 00:43:26;;;;;;;13.15;7.90;;;16.40;99.90;;;;;;5028096;28;20025;-72
2022/05/20 00:45:53;;;;;;;15.85;8.00;;;16.40;99.90;;;;;;5026348;28;20043;-71
2022/05/20 00:48:19;;;;;;;12.32;7.78;;;16.20;99.90;;;;;;5027220;28;20137;-71
2022/05/20 00:50:52;;;;;;;15.32;8.15;;;16.20;99.90;;;;;;5026044;28;20030;-70
2022/05/20 00:53:20;;;;;;;13.30;7.72;;;16.10;99.90;;;;;;5028956;28;20034;-74
2022/05/20 00:55:46;;;;;;;16.20;7.78;;;16.00;99.90;;;;;;5029793;28;20699;-73
2022/05/20 00:58:22;;;;;;;16.27;7.32;;;16.00;99.90;;;;;;5029043;28;20030;-71
2022/05/20 01:00:53;;;;;;;12.63;8.00;;;16.00;99.90;;;;;;5030435;28;20034;-71
2022/05/20 01:03:28;;;;;;;14.05;7.43;;;16.10;99.90;;;;;;5029720;28;20037;-72
2022/05/20 01:05:56;;;;;;;14.10;7.70;;;16.10;99.90;;;;;;5028972;28;20065;-71
2022/05/20 01:08:30;;;;;;;13.82;7.22;;;16.10;99.90;;;;;;5029466;28;20034;-73
2022/05/20 01:10:57;;;;;;;12.85;7.22;;;16.10;99.90;;;;;;5028951;28;20034;-71
2022/05/20 01:13:28;;;;;;;13.45;7.22;;;16.20;99.90;;;;;;5030763;28;20109;-71
2022/05/20 01:15:55;;;;;;;10.98;7.70;;;16.20;99.90;;;;;;5029185;28;20133;-71
2022/05/20 01:18:22;;;;;;;13.00;7.60;;;16.20;99.90;;;;;;5029546;28;20116;-70
2022/05/20 01:20:51;;;;;;;14.80;7.38;;;16.20;99.90;;;;;;5029649;28;20445;-72
2022/05/20 01:23:20;;;;;;;13.27;7.03;;;16.20;99.90;;;;;;5027088;28;20026;-72
2022/05/20 01:25:52;;;;;;;13.60;7.10;;;16.20;99.90;;;;;;5028181;28;21096;-70
2022/05/20 01:28:20;;;;;;;14.63;6.97;;;16.20;99.90;;;;;;5026546;28;20026;-72
2022/05/20 01:30:53;;;;;;;10.48;7.10;;;16.20;99.90;;;;;;5028395;28;20037;-71
2022/05/20 01:33:24;;;;;;;15.55;7.78;;;16.20;99.90;;;;;;5029315;28;20049;-72
2022/05/20 01:35:50;;;;;;;12.98;6.97;;;16.30;99.90;;;;;;5028486;28;20031;-72
2022/05/20 01:38:15;;;;;;;18.13;7.22;;;16.30;99.90;;;;;;5030366;28;20486;-72
2022/05/20 01:40:52;;;;;;;13.70;7.22;;;16.30;99.90;;;;;;5029222;28;20048;-68
2022/05/20 01:43:45;;;;;;;15.73;7.20;;;16.20;99.90;;;;;;5029138;28;20385;-72
2022/05/20 01:46:45;;;;;;;15.77;7.30;;;16.20;99.90;;;;;;5029505;28;20025;-71
2022/05/20 01:49:41;;;;;;;13.60;7.22;;;16.20;99.90;;;;;;4997504;28;20061;-71
2022/05/20 01:52:15;;;;;;;10.70;7.47;;;16.20;99.90;;;;;;5016908;28;20048;-72
2022/05/20 01:54:59;;;;;;;11.90;6.40;;;16.10;99.90;;;;;;5029558;28;20033;-67
2022/05/20 01:57:47;;;;;;;13.82;7.35;;;16.10;99.90;;;;;;5028278;28;20034;-72
2022/05/20 02:00:26;;;;;;;15.15;6.85;;;16.10;99.90;;;;;;5013707;28;20049;-72
2022/05/20 02:03:02;;;;;;;21.27;7.05;;;16.10;99.90;;;;;;5025072;28;20026;-73
2022/05/20 02:05:30;;;;;;;11.73;6.78;;;16.10;99.90;;;;;;5027006;28;20026;-73
2022/05/20 02:08:05;;;;;;;17.95;6.40;;;16.20;99.90;;;;;;5028996;28;20533;-73
2022/05/20 02:10:51;;;;;;;12.15;6.45;;;16.10;99.90;;;;;;5026915;28;20037;-71
2022/05/20 02:13:18;;;;;;;14.88;7.25;;;16.10;99.90;;;;;;5029872;28;20083;-73
2022/05/20 02:15:52;;;;;;;13.55;6.85;;;16.00;99.90;;;;;;5029706;28;20033;-67
2022/05/20 02:18:26;;;;;;;15.82;5.93;;;16.10;99.90;;;;;;5029711;28;20044;-73
2022/05/20 02:20:56;;;;;;;18.98;6.57;;;16.10;99.90;;;;;;5026982;28;20045;-73
2022/05/20 02:23:25;;;;;;;8.18;5.53;;;15.80;99.90;;;;;;5025607;28;20033;-71
2022/05/20 02:26:00;;;;;;;10.23;5.30;;;15.60;99.90;;;;;;5029412;28;20030;-71
2022/05/20 02:28:33;;;;;;;42.33;5.90;;;15.50;99.90;;;;;;5029877;28;20111;-73
2022/05/20 02:30:59;;;;;;;15.57;6.38;;;15.50;99.90;;;;;;5030115;28;20494;-71
2022/05/20 02:33:27;;;;;;;15.10;5.70;;;15.40;99.90;;;;;;5027859;28;20056;-71
2022/05/20 02:36:08;;;;;;;8.05;4.82;;;15.30;99.90;;;;;;5029852;28;20029;-72
2022/05/20 02:38:36;;;;;;;28.52;5.80;;;15.20;99.90;;;;;;5021190;28;20029;-72
2022/05/20 02:41:02;;;;;;;7.78;5.50;;;15.20;99.90;;;;;;5029476;28;20046;-71
2022/05/20 02:43:28;;;;;;;10.43;5.32;;;15.20;99.90;;;;;;5028435;28;20032;-71
2022/05/20 02:45:54;;;;;;;13.05;5.63;;;15.20;99.90;;;;;;5028528;28;20704;-72
2022/05/20 02:48:21;;;;;;;13.23;7.03;;;15.10;99.90;;;;;;5029516;28;20049;-71
2022/05/20 02:50:49;;;;;;;13.40;6.45;;;15.20;99.90;;;;;;5027947;28;20375;-70
2022/05/20 02:53:15;;;;;;;21.55;6.72;;;15.30;99.90;;;;;;5026570;28;20104;-71
2022/05/20 02:55:40;;;;;;;11.90;6.22;;;15.40;99.90;;;;;;5030552;28;20431;-71
2022/05/20 02:58:06;;;;;;;108.90;8.00;;;15.40;99.90;;;;;;5027783;28;20482;-71
2022/05/20 03:06:00;;;;;;;8.93;5.57;;;15.20;99.90;;;;;;5026676;28;20035;-71
2022/05/20 03:08:26;;;;;;;7.97;5.43;;;14.90;99.90;;;;;;5028661;28;20037;-73
2022/05/20 03:10:52;;;;;;;8.00;5.28;;;14.90;99.90;;;;;;5026101;28;20462;-70
2022/05/20 03:13:18;;;;;;;8.43;5.07;;;14.80;99.90;;;;;;5026803;28;20017;-71
2022/05/20 03:15:44;;;;;;;7.13;5.32;;;14.80;99.90;;;;;;5027584;28;20485;-73
2022/05/20 03:18:12;;;;;;;8.70;5.57;;;14.80;99.90;;;;;;5027033;28;20047;-73
2022/05/20 03:20:41;;;;;;;10.27;6.10;;;14.90;99.90;;;;;;5027565;28;20037;-72
2022/05/20 03:23:07;;;;;;;9.70;6.40;;;14.80;99.90;;;;;;5025924;28;20041;-71
2022/05/20 03:25:35;;;;;;;10.52;6.32;;;14.90;99.90;;;;;;5028788;28;20033;-71
2022/05/20 03:28:01;;;;;;;11.63;6.35;;;14.90;99.90;;;;;;5026733;28;20025;-72
2022/05/20 03:30:27;;;;;;;11.07;6.55;;;14.80;99.90;;;;;;5027603;28;20040;-72
2022/05/20 03:32:53;;;;;;;11.20;6.43;;;14.80;99.90;;;;;;5022151;28;20037;-67
2022/05/20 03:35:18;;;;;;;9.52;6.07;;;14.80;99.90;;;;;;5027702;28;20040;-70
2022/05/20 03:37:44;;;;;;;11.18;6.43;;;14.80;99.90;;;;;;5019783;28;20065;-69
2022/05/20 03:40:10;;;;;;;11.40;7.38;;;14.80;99.90;;;;;;5022659;28;20644;-73
2022/05/20 03:42:36;;;;;;;10.93;7.07;;;14.80;99.90;;;;;;5025753;28;20026;-70
2022/05/20 03:45:02;;;;;;;11.30;6.22;;;14.90;99.90;;;;;;5025756;28;20036;-71
2022/05/20 03:47:28;;;;;;;9.73;6.50;;;14.90;99.90;;;;;;5014709;28;20037;-74
2022/05/20 03:49:54;;;;;;;10.77;6.35;;;14.90;99.90;;;;;;5014366;28;20108;-71
2022/05/20 03:52:19;;;;;;;11.35;6.65;;;14.90;99.90;;;;;;5023989;28;20045;-73
2022/05/20 03:54:46;;;;;;;8.68;6.03;;;14.90;99.90;;;;;;5026314;28;20036;-71
2022/05/20 03:57:11;;;;;;;14.43;5.60;;;14.90;99.90;;;;;;5026368;28;20553;-71
2022/05/20 03:59:37;;;;;;;8.52;5.70;;;15.00;99.90;;;;;;5026131;28;20057;-65
2022/05/20 04:02:09;;;;;;;23.02;6.03;;;14.90;99.90;;;;;;5010536;28;20034;-71
2022/05/20 04:04:41;;;;;;;13.50;6.03;;;14.80;99.90;;;;;;5014001;28;20545;-66
2022/05/20 04:07:13;;;;;;;10.60;5.60;;;14.80;99.90;;;;;;5021028;28;20025;-70
2022/05/20 04:09:39;;;;;;;8.93;5.80;;;14.80;99.90;;;;;;5028283;28;20041;-69
2022/05/20 04:12:13;;;;;;;23.85;5.78;;;14.90;99.90;;;;;;5028211;28;20038;-70
2022/05/20 04:14:39;;;;;;;10.15;6.00;;;14.90;99.90;;;;;;5026905;28;20037;-68
2022/05/20 04:17:04;;;;;;;8.35;6.13;;;14.90;99.90;;;;;;5026556;28;20029;-70
2022/05/20 04:19:32;;;;;;;9.57;6.32;;;15.00;99.90;;;;;;5028133;28;20037;-69
2022/05/20 04:22:03;;;;;;;11.40;6.07;;;15.00;99.90;;;;;;5024403;28;20045;-69
2022/05/20 04:24:29;;;;;;;10.80;6.35;;;15.10;99.90;;;;;;5025450;28;20033;-70
2022/05/20 04:26:54;;;;;;;8.45;5.60;;;15.00;99.90;;;;;;5026486;28;20037;-69
2022/05/20 04:29:20;;;;;;;8.10;6.00;;;15.00;99.90;;;;;;5026582;28;20037;-70
2022/05/20 04:31:48;;;;;;;11.25;5.78;;;15.00;99.90;;;;;;5031078;28;20033;-73
2022/05/20 04:34:14;;;;;;;8.38;5.97;;;15.00;99.90;;;;;;5029234;28;20217;-71
2022/05/20 04:36:40;;;;;;;17.15;5.95;;;15.10;99.90;;;;;;5028677;28;20042;-70
2022/05/20 04:39:06;;;;;;;11.00;6.32;;;15.10;99.90;;;;;;5026245;28;20406;-74
2022/05/20 04:47:03;;;;;;;10.02;6.35;;;15.30;99.90;;;;;;5028067;28;20098;-69
2022/05/20 04:49:31;;;;;;;8.57;5.93;;;15.30;99.90;;;;;;5024860;28;20030;-71
2022/05/20 04:51:57;;;;;;;8.85;6.05;;;15.30;99.90;;;;;;5025834;28;20072;-72
2022/05/20 04:57:08;;;;;;;7.72;5.78;;;15.50;99.90;;;;;;5024178;28;20032;-72
2022/05/20 04:59:39;;;;;;;7.47;5.45;;;15.60;99.90;;;;;;5030289;28;20049;-70
2022/05/20 05:02:05;;;;;;;9.57;5.70;;;15.60;99.90;;;;;;5026032;28;20049;-73
2022/05/20 05:04:31;;;;;;;8.35;5.70;;;15.70;99.90;;;;;;5027795;28;20428;-71
2022/05/20 05:06:57;;;;;;;8.02;5.68;;;15.70;99.90;;;;;;5028784;28;20041;-72
2022/05/20 05:09:23;;;;;;;9.30;6.20;;;15.70;99.90;;;;;;5031181;28;20034;-71
2022/05/20 05:11:49;;;;;;;8.57;5.80;;;15.70;99.90;;;;;;5031253;28;20033;-70
2022/05/20 05:14:15;;;;;;;10.07;5.90;;;15.70;99.90;;;;;;5029957;28;20032;-72
2022/05/20 05:16:42;;;;;;;8.80;6.47;;;15.80;99.90;;;;;;5030955;28;20037;-70
2022/05/20 05:19:09;;;;;;;9.57;6.20;;;15.90;99.90;;;;;;5031303;28;20033;-72
2022/05/20 05:21:34;;;;;;;10.65;6.85;;;16.10;99.90;;;;;;5029861;28;20474;-73
2022/05/20 05:24:00;;;;;;;8.68;6.47;;;16.10;99.90;;;;;;5010581;28;20080;-72
2022/05/20 05:26:28;;;;;;;9.13;6.15;;;16.20;99.90;;;;;;5030167;28;20478;-71
2022/05/20 05:28:53;;;;;;;13.15;7.07;;;16.40;99.90;;;;;;5031919;28;20044;-70
2022/05/20 05:31:19;;;;;;;11.38;6.72;;;16.50;99.90;;;;;;5027962;28;20423;-73
2022/05/20 05:33:44;;;;;;;11.75;6.35;;;16.40;99.90;;;;;;5029833;28;20036;-71
2022/05/20 05:36:11;;;;;;;13.23;6.50;;;16.30;99.90;;;;;;5029007;28;20072;-72
2022/05/20 05:38:37;;;;;;;10.90;7.53;;;16.30;99.90;;;;;;5030498;28;20423;-74
2022/05/20 05:41:03;;;;;;;10.02;7.32;;;16.40;99.90;;;;;;5029586;28;20096;-73
2022/05/20 05:43:29;;;;;;;10.00;6.78;;;16.50;99.90;;;;;;5030163;28;20065;-70
2022/05/20 05:45:54;;;;;;;11.70;7.68;;;16.70;99.90;;;;;;5030200;28;20029;-69
2022/05/20 05:48:20;;;;;;;12.75;7.22;;;16.90;99.90;;;;;;5027133;28;20026;-72
2022/05/20 05:50:46;;;;;;;10.20;6.88;;;17.10;99.90;;;;;;5030741;28;20037;-72
2022/05/20 05:53:20;;;;;;;12.05;7.32;;;17.30;99.90;;;;;;5028712;28;20041;-72
2022/05/20 05:55:49;;;;;;;10.93;7.05;;;17.60;99.90;;;;;;5026490;28;20079;-72
2022/05/20 05:58:15;;;;;;;11.88;7.60;;;17.70;99.90;;;;;;5030668;28;20037;-70
2022/05/20 06:00:42;;;;;;;12.93;7.47;;;17.70;99.90;;;;;;5029368;28;20033;-73
2022/05/20 06:03:08;;;;;;;12.18;7.85;;;17.70;99.90;;;;;;5028703;28;20036;-74
2022/05/20 06:05:35;;;;;;;13.60;7.70;;;17.70;99.90;;;;;;5027269;28;20034;-72
2022/05/20 06:08:01;;;;;;;10.55;8.00;;;17.90;99.90;;;;;;5028384;28;20025;-72
2022/05/20 06:10:28;;;;;;;8.80;6.63;;;18.20;99.90;;;;;;5030074;28;20042;-72
2022/05/20 06:12:55;;;;;;;13.35;7.88;;;18.40;99.90;;;;;;5030847;28;20032;-76
2022/05/20 06:15:22;;;;;;;17.50;7.65;;;18.70;99.90;;;;;;5027096;28;20127;-72
2022/05/20 06:17:52;;;;;;;10.52;7.03;;;18.90;99.90;;;;;;5028817;28;20116;-73
2022/05/20 06:20:19;;;;;;;14.90;7.88;;;19.10;99.90;;;;;;5030144;28;20108;-74
2022/05/20 06:22:45;;;;;;;10.13;7.20;;;19.30;99.90;;;;;;5029906;28;20043;-73
2022/05/20 06:25:11;;;;;;;10.15;7.05;;;19.40;99.90;;;;;;5029398;28;20029;-72
2022/05/20 06:27:37;;;;;;;10.85;6.78;;;19.60;99.90;;;;;;5029163;28;20029;-73
2022/05/20 06:30:05;;;;;;;12.75;7.03;;;19.60;99.90;;;;;;5027894;28;20497;-73
2022/05/20 06:32:31;;;;;;;12.10;7.72;;;19.70;99.90;;;;;;5031614;28;20064;-72
2022/05/20 06:40:25;;;;;;;11.15;8.05;;;20.00;99.90;;;;;;5027943;28;20067;-72
2022/05/20 06:42:51;;;;;;;15.52;8.00;;;20.10;99.90;;;;;;5026882;28;20030;-72
2022/05/20 06:45:17;;;;;;;13.90;7.75;;;20.10;99.90;;;;;;5027123;28;20026;-73
2022/05/20 06:47:43;;;;;;;13.45;8.13;;;20.20;99.90;;;;;;5029500;28;20025;-70
2022/05/20 06:50:11;;;;;;;15.15;7.97;;;20.30;99.90;;;;;;5028669;28;20044;-70
2022/05/20 06:52:36;;;;;;;12.93;7.68;;;20.50;99.90;;;;;;5028103;28;20025;-73
2022/05/20 06:55:03;;;;;;;11.88;8.00;;;20.60;99.90;;;;;;5025808;28;20083;-67
2022/05/20 06:57:29;;;;;;;11.80;8.02;;;20.70;99.90;;;;;;5027568;28;20038;-72
2022/05/20 06:59:54;;;;;;;11.65;8.23;;;20.90;99.90;;;;;;5028810;28;20044;-72
2022/05/20 07:02:20;;;;;;;12.98;7.07;;;21.00;99.90;;;;;;5026284;28;20090;-70
2022/05/20 07:04:46;;;;;;;16.90;7.88;;;21.20;99.90;;;;;;5025958;28;20091;-70
2022/05/20 07:07:12;;;;;;;9.30;7.55;;;21.30;99.90;;;;;;5026893;28;20429;-70
2022/05/20 07:09:38;;;;;;;13.30;7.80;;;21.50;99.90;;;;;;5030138;28;20029;-71
2022/05/20 07:12:04;;;;;;;19.10;8.38;;;21.70;99.90;;;;;;5026313;28;20037;-72
2022/05/20 07:14:30;;;;;;;15.43;6.90;;;22.00;99.90;;;;;;5029047;28;20116;-72
2022/05/20 07:16:56;;;;;;;13.00;6.28;;;22.10;99.90;;;;;;5026304;28;20041;-72
2022/05/20 07:19:22;;;;;;;12.00;6.43;;;22.30;99.90;;;;;;5026693;28;20270;-73
2022/05/20 07:21:48;;;;;;;12.32;6.07;;;22.30;99.90;;;;;;5026658;28;20088;-74
2022/05/20 07:24:14;;;;;;;15.98;6.30;;;22.50;99.90;;;;;;5027785;28;20386;-77
2022/05/20 07:26:40;;;;;;;9.82;5.50;;;22.70;99.90;;;;;;5028413;28;20463;-71
2022/05/20 07:29:08;;;;;;;12.68;5.28;;;22.70;99.90;;;;;;5028054;28;20035;-72
2022/05/20 07:31:35;;;;;;;12.90;6.20;;;22.90;99.90;;;;;;5026004;28;20489;-73
2022/05/20 07:34:01;;;;;;;12.30;6.18;;;23.10;99.90;;;;;;5023215;28;20044;-71
2022/05/20 07:36:27;;;;;;;7.85;5.90;;;23.30;99.90;;;;;;5027532;28;20032;-74
2022/05/20 07:38:53;;;;;;;11.98;6.40;;;23.40;99.90;;;;;;5028316;28;20041;-72
2022/05/20 07:41:19;;;;;;;10.27;6.00;;;23.60;99.90;;;;;;5026711;28;20107;-73
2022/05/20 07:43:45;;;;;;;11.63;6.07;;;23.60;99.90;;;;;;4998956;28;20536;-72
2022/05/20 07:46:11;;;;;;;11.50;6.72;;;23.70;99.90;;;;;;5026778;28;20037;-72
2022/05/20 07:48:36;;;;;;;8.13;6.05;;;23.80;99.90;;;;;;5028172;28;20033;-73
2022/05/20 07:51:13;;;;;;;17.40;6.53;;;24.00;99.90;;;;;;5027438;28;20056;-70
2022/05/20 07:53:54;;;;;;;13.35;6.40;;;24.20;99.90;;;;;;5028033;28;20450;-72
2022/05/20 07:56:34;;;;;;;10.18;6.07;;;24.30;99.90;;;;;;5027464;28;20041;-74
2022/05/20 07:59:11;;;;;;;;;;;24.40;99.90;;;;;;5028876;28;20037;-71
2022/05/20 08:01:41;;;;;;;11.45;6.55;;;24.50;99.90;;;;;;5026603;28;19920;-72
2022/05/20 08:07:11;;;;;;;12.05;6.70;;;24.60;99.90;;;;;;5030162;28;20426;-70
2022/05/20 08:09:37;;;;;;;10.98;6.43;;;24.70;99.90;;;;;;5032821;28;20041;-73
2022/05/20 08:12:03;;;;;;;10.38;6.70;;;24.70;99.90;;;;;;5029815;28;20169;-71
2022/05/20 08:14:29;;;;;;;12.30;7.03;;;24.70;99.90;;;;;;5032775;28;20029;-72
2022/05/20 08:16:59;;;;;;;12.82;6.70;;;24.80;99.90;;;;;;5030797;28;20485;-72
2022/05/20 08:19:26;;;;;;;13.85;6.28;;;24.90;99.90;;;;;;5031375;28;20521;-71
2022/05/20 08:21:51;;;;;;;10.05;6.43;;;25.10;99.90;;;;;;5030255;28;20109;-74
2022/05/20 08:24:17;;;;;;;9.07;6.05;;;25.30;99.90;;;;;;5030126;28;20022;-75
2022/05/20 08:26:43;;;;;;;12.77;6.38;;;25.50;99.90;;;;;;5027156;28;20738;-74
2022/05/20 08:29:12;;;;;;;11.88;6.13;;;25.60;99.90;;;;;;5030895;28;20040;-72
2022/05/20 08:31:38;;;;;;;14.90;5.95;;;25.50;99.90;;;;;;5028272;28;20486;-77
2022/05/20 08:34:04;;;;;;;11.02;6.45;;;25.60;99.90;;;;;;5022542;28;20025;-68
2022/05/20 08:36:30;;;;;;;11.82;6.28;;;25.60;99.90;;;;;;5026642;28;20031;-71
2022/05/20 08:38:56;;;;;;;13.63;5.80;;;25.80;99.90;;;;;;5031547;28;20072;-70
2022/05/20 08:41:27;;;;;;;10.48;5.75;;;25.80;99.90;;;;;;5029193;28;20490;-74
2022/05/20 08:43:53;;;;;;;13.07;6.38;;;26.00;99.90;;;;;;5026789;28;20022;-75
2022/05/20 08:46:23;;;;;;;14.27;6.03;;;26.00;99.90;;;;;;5029600;28;20044;-74
2022/05/20 08:48:53;;;;;;;11.20;5.70;;;26.00;99.90;;;;;;5032407;28;20110;-72
2022/05/20 08:51:21;;;;;;;14.00;6.40;;;26.10;99.90;;;;;;5030239;28;20060;-75
2022/05/20 08:53:48;;;;;;;10.18;6.43;;;26.30;99.90;;;;;;5028724;28;20029;-76
2022/05/20 08:56:22;;;;;;;10.38;6.20;;;26.40;99.90;;;;;;5029831;28;20148;-74
2022/05/20 08:59:01;;;;;;;10.02;5.85;;;26.60;99.90;;;;;;5023320;28;20036;-73
2022/05/20 09:01:43;;;;;;;12.93;6.03;;;26.80;99.90;;;;;;5028916;28;20029;-75
2022/05/20 09:04:11;;;;;;;12.45;5.78;;;26.80;99.90;;;;;;5031819;28;20091;-71
2022/05/20 09:06:56;;;;;;;8.25;5.55;;;26.90;99.90;;;;;;5012549;28;20081;-75
2022/05/20 09:09:25;;;;;;;13.95;5.97;;;26.90;99.90;;;;;;5031846;28;20082;-75
2022/05/20 09:11:56;;;;;;;9.00;5.45;;;27.10;99.90;;;;;;5030518;28;20116;-74
2022/05/20 09:17:18;;;;;;;11.50;6.70;;;27.30;99.90;;;;;;5030595;28;20076;-72
2022/05/20 09:19:55;;;;;;;15.40;6.60;;;27.30;99.90;;;;;;5029851;28;20414;-73
2022/05/20 09:22:27;;;;;;;11.88;6.47;;;27.40;99.90;;;;;;5030379;28;20038;-73
2022/05/20 09:24:52;;;;;;;7.25;5.40;;;27.60;99.90;;;;;;5031484;28;20026;-73
2022/05/20 09:27:27;;;;;;;12.10;5.90;;;27.60;99.90;;;;;;5029898;28;20048;-74
2022/05/20 09:30:14;;;;;;;11.25;5.43;;;27.70;99.90;;;;;;5031678;28;20035;-72
2022/05/20 09:32:44;;;;;;;8.95;6.07;;;27.80;99.90;;;;;;5029552;28;20498;-71
2022/05/20 09:35:17;;;;;;;12.05;6.25;;;27.90;99.90;;;;;;5031095;28;20095;-70
2022/05/20 09:37:48;;;;;;;12.65;5.68;;;27.90;99.90;;;;;;5027470;28;20556;-73
2022/05/20 09:40:20;;;;;;;17.58;6.10;;;28.00;99.90;;;;;;5030445;28;20064;-73
2022/05/20 09:43:03;;;;;;;10.95;5.72;;;28.20;99.90;;;;;;5030689;28;20088;-74
2022/05/20 09:45:45;;;;;;;10.57;5.97;;;28.20;99.90;;;;;;5030948;28;20032;-75
2022/05/20 09:48:20;;;;;;;14.65;6.15;;;28.10;99.90;;;;;;5026958;28;20042;-74
2022/05/20 09:51:12;;;;;;;9.35;5.70;;;28.30;99.90;;;;;;5031622;28;20041;-73
2022/05/20 09:53:40;;;;;;;9.63;5.60;;;28.10;99.90;;;;;;5029942;28;20116;-75
2022/05/20 09:56:24;;;;;;;8.40;5.25;;;28.00;99.90;;;;;;5027434;28;20055;-74
2022/05/20 09:59:19;;;;;;;9.55;5.45;;;28.10;99.90;;;;;;5028433;28;20044;-73
2022/05/20 10:02:14;;;;;;;10.05;5.65;;;28.10;99.90;;;;;;5028146;28;20061;-75
2022/05/20 10:04:56;;;;;;;8.43;4.88;;;28.10;99.80;;;;;;5030477;28;20371;-74
2022/05/20 10:07:38;;;;;;;8.48;5.18;;;28.10;99.60;;;;;;5027378;28;20041;-73
2022/05/20 10:10:20;;;;;;;11.20;5.38;;;28.20;98.40;;;;;;5029058;28;20034;-72
2022/05/20 10:12:49;;;;;;;8.07;4.55;;;28.20;96.60;;;;;;5030369;28;20037;-72
2022/05/20 10:15:21;;;;;;;11.68;4.90;;;28.20;95.50;;;;;;5028917;28;20036;-71
2022/05/20 10:18:08;;;;;;;11.88;5.00;;;28.40;95.40;;;;;;5028148;28;20492;-73
2022/05/20 10:20:55;;;;;;;11.07;5.00;;;28.40;95.40;;;;;;5027175;28;20812;-73
2022/05/20 10:23:26;;;;;;;6.45;4.93;;;28.20;94.90;;;;;;5029317;28;20028;-73
2022/05/20 10:26:08;;;;;;;8.05;4.53;;;28.30;97.80;;;;;;5027265;28;20386;-70
2022/05/20 10:34:43;;;;;;;8.98;4.85;;;28.40;90.00;;;;;;5016078;28;20389;-70
2022/05/20 10:37:33;;;;;;;9.65;5.07;;;28.20;90.80;;;;;;5029009;28;20029;-75
2022/05/20 10:40:11;;;;;;;12.18;4.70;;;28.20;90.50;;;;;;5028848;28;20049;-73
2022/05/20 10:42:59;;;;;;;12.68;5.10;;;28.10;90.40;;;;;;5027707;28;20037;-74
2022/05/20 10:48:35;;;;;;;9.07;4.78;;;28.00;88.70;;;;;;5010098;28;20064;-72
2022/05/20 10:51:40;;;;;;;9.77;4.95;;;28.10;93.90;;;;;;5010601;28;20040;-73
2022/05/20 10:54:14;;;;;;;9.80;4.70;;;28.30;90.60;;;;;;5014542;28;20144;-72
2022/05/20 10:57:04;;;;;;;8.82;5.05;;;28.30;92.20;;;;;;5024582;28;20039;-73
2022/05/20 10:59:48;;;;;;;8.63;5.20;;;28.40;92.20;;;;;;5023318;28;20045;-72
2022/05/20 11:02:39;;;;;;;10.07;5.28;;;28.50;91.30;;;;;;5024101;28;20108;-71
2022/05/20 11:05:29;;;;;;;12.93;5.07;;;28.70;93.40;;;;;;5029481;28;20112;-72
2022/05/20 11:08:04;;;;;;;14.32;5.60;;;28.70;90.10;;;;;;5022399;28;20108;-74
2022/05/20 11:11:13;;;;;;;8.35;5.53;;;28.80;93.00;;;;;;5024163;28;20446;-74
2022/05/20 11:14:08;;;;;;;13.18;5.20;;;28.90;91.60;;;;;;5025926;28;20061;-71
2022/05/20 11:16:42;;;;;;;16.27;5.30;;;29.10;91.70;;;;;;5027873;28;20025;-72
2022/05/20 11:19:27;;;;;;;9.02;5.68;;;29.30;93.40;;;;;;5026555;28;20057;-73
2022/05/20 11:22:10;;;;;;;13.25;5.85;;;29.60;92.90;;;;;;5026649;28;20062;-73
2022/05/20 11:24:54;;;;;;;11.40;5.38;;;29.60;90.90;;;;;;5025322;28;20131;-72
2022/05/20 11:27:51;;;;;;;9.10;5.45;;;29.40;91.60;;;;;;5026039;28;20041;-73
2022/05/20 11:30:19;;;;;;;8.90;5.45;;;29.30;90.80;;;;;;5024536;28;20513;-69
2022/05/20 11:33:09;;;;;;;11.10;5.85;;;29.30;90.00;;;;;;5027585;28;20030;-72
2022/05/20 11:35:59;;;;;;;;;;;29.40;90.70;;;;;;5029214;28;20675;-73
2022/05/20 11:38:40;;;;;;;7.65;5.15;;;29.40;92.90;;;;;;5024247;28;19917;-71
2022/05/20 11:41:12;;;;;;;11.20;5.45;;;29.60;90.50;;;;;;5024825;28;20045;-71
2022/05/20 11:44:12;;;;;;;12.00;5.45;;;29.40;86.90;;;;;;5026346;28;20033;-73
2022/05/20 11:47:07;;;;;;;11.10;5.38;;;29.40;93.30;;;;;;5002402;28;20049;-73
2022/05/20 11:50:11;;;;;;;8.30;5.35;;;29.70;91.20;;;;;;5002821;28;20045;-74
2022/05/20 11:52:53;;;;;;;11.98;5.63;;;30.00;89.00;;;;;;5019563;28;20029;-74
2022/05/20 11:55:20;;;;;;;11.77;4.88;;;29.90;87.60;;;;;;5026062;28;20209;-71
2022/05/20 11:57:58;;;;;;;10.48;5.70;;;29.90;87.50;;;;;;5028191;28;20042;-72
2022/05/20 12:00:25;;;;;;;11.68;5.47;;;29.90;88.80;;;;;;5021902;28;20033;-72
2022/05/20 12:03:04;;;;;;;12.20;5.72;;;29.50;85.90;;;;;;5029110;28;20381;-72
2022/05/20 12:05:36;;;;;;;10.57;5.60;;;29.50;90.20;;;;;;5012649;28;20497;-70
2022/05/20 12:08:02;;;;;;;12.13;4.95;;;29.50;86.40;;;;;;5026022;28;20025;-71
2022/05/20 12:10:31;;;;;;;12.05;6.15;;;29.50;87.30;;;;;;5027981;28;20474;-73
2022/05/20 12:13:15;;;;;;;12.18;6.03;;;29.70;83.80;;;;;;5026016;28;20033;-73
2022/05/20 12:15:45;;;;;;;15.52;5.45;;;29.80;91.90;;;;;;5027748;28;20029;-72
2022/05/20 12:24:25;;;;;;;13.18;5.85;;;30.10;82.40;;;;;;5027482;28;20088;-72
2022/05/20 12:26:53;;;;;;;16.88;5.65;;;30.20;84.30;;;;;;5025074;28;20033;-72
2022/05/20 12:29:37;;;;;;;10.00;5.45;;;30.40;86.60;;;;;;5023763;28;20029;-70
2022/05/20 12:32:15;;;;;;;9.82;6.25;;;30.50;90.20;;;;;;5027498;28;20367;-74
2022/05/20 12:34:42;;;;;;;11.82;5.40;;;30.40;82.00;;;;;;5008797;28;20030;-73
2022/05/20 12:37:28;;;;;;;13.10;5.97;;;30.50;80.10;;;;;;5026557;28;20037;-73
2022/05/20 12:39:53;;;;;;;13.25;5.97;;;30.70;78.60;;;;;;5025425;28;20053;-74
2022/05/20 12:42:38;;;;;;;12.00;5.95;;;30.90;77.80;;;;;;5026597;28;20119;-70
2022/05/20 12:45:06;;;;;;;10.70;6.13;;;30.90;80.60;;;;;;5028979;28;20112;-72
2022/05/20 12:47:33;;;;;;;9.77;5.50;;;30.50;83.00;;;;;;5026844;28;20113;-73
2022/05/20 12:50:25;;;;;;;11.30;5.40;;;30.10;82.90;;;;;;5030485;28;20032;-71
2022/05/20 12:52:54;;;;;;;11.25;5.97;;;29.80;83.20;;;;;;5032815;28;20025;-73
2022/05/20 12:55:28;;;;;;;13.32;6.43;;;30.00;85.50;;;;;;5032144;28;20489;-70
2022/05/20 12:57:57;;;;;;;10.30;6.07;;;30.10;82.80;;;;;;5019239;28;20088;-73
2022/05/20 13:00:26;;;;;;;10.45;5.82;;;30.20;83.00;;;;;;5031579;28;20037;-70
2022/05/20 13:03:05;;;;;;;11.63;6.10;;;30.40;89.20;;;;;;5032273;28;20037;-71
2022/05/20 13:05:34;;;;;;;12.52;5.72;;;30.70;86.70;;;;;;5030928;28;20500;-74
2022/05/20 13:08:03;;;;;;;16.65;6.03;;;30.80;80.80;;;;;;5030683;28;20045;-72
2022/05/20 13:10:32;;;;;;;10.77;5.25;;;30.90;83.10;;;;;;5030624;28;20045;-71
2022/05/20 13:13:07;;;;;;;11.45;5.60;;;30.90;81.50;;;;;;5032097;28;20489;-73
2022/05/20 13:16:13;;;;;;;14.10;6.40;;;30.90;83.30;;;;;;5030825;28;20026;-71
2022/05/20 13:18:43;;;;;;;11.32;5.43;;;30.90;86.60;;;;;;4912419;29;20135;-71
2022/05/20 13:21:20;;;;;;;9.52;5.60;;;30.70;82.20;;;;;;4913203;29;20272;-73
2022/05/20 13:23:53;;;;;;;9.13;5.90;;;30.90;78.70;;;;;;4919984;29;20059;-73
2022/05/20 13:26:23;;;;;;;7.97;5.35;;;31.00;77.80;;;;;;4929342;29;20032;-72
2022/05/20 13:28:50;;;;;;;15.85;7.25;;;31.10;78.30;;;;;;4931145;29;20036;-74
2022/05/20 13:31:24;;;;;;;9.85;6.15;;;31.20;86.00;;;;;;4930626;29;20043;-71
2022/05/20 13:33:51;;;;;;;18.98;6.07;;;31.10;78.80;;;;;;4931758;29;20086;-71
2022/05/20 13:36:22;;;;;;;10.73;6.45;;;30.90;79.40;;;;;;4927206;29;20040;-72
2022/05/20 13:38:54;;;;;;;19.13;7.97;;;30.90;84.60;;;;;;4930108;29;20488;-73
2022/05/20 13:41:23;;;;;;;12.05;6.03;;;31.00;83.80;;;;;;4931084;29;20465;-72
2022/05/20 13:43:52;;;;;;;15.85;6.88;;;31.00;86.30;;;;;;4915517;29;20115;-73